createdAt,value
2022-12-25T00:01:22.457Z,36.20
2022-12-25T00:03:55.057Z,38.10
2022-12-25T00:06:27.051Z,42.30
2022-12-25T00:08:58.697Z,39.10
2022-12-25T00:11:30.378Z,39.80
2022-12-25T00:14:01.984Z,36.40
2022-12-25T00:16:33.718Z,32.20
2022-12-25T00:19:05.673Z,36.60
2022-12-25T00:21:37.404Z,33.50
2022-12-25T00:24:10.507Z,36.60
2022-12-25T00:26:42.130Z,40.60
2022-12-25T00:29:14.818Z,49.80
2022-12-25T00:31:46.601Z,45.80
2022-12-25T00:34:18.334Z,43.90
2022-12-25T00:36:52.862Z,42.30
2022-12-25T00:39:24.509Z,47.40
2022-12-25T00:42:13.839Z,52.20
2022-12-25T00:44:45.471Z,46.50
2022-12-25T00:47:18.062Z,54.90
2022-12-25T00:49:49.805Z,50.30
2022-12-25T00:52:21.539Z,49.80
2022-12-25T00:54:53.182Z,53.40
2022-12-25T00:57:25.843Z,52.90
2022-12-25T00:59:57.427Z,49.10
2022-12-25T01:02:29.322Z,50.80
2022-12-25T01:05:01.091Z,53.00
2022-12-25T01:07:32.773Z,53.60
2022-12-25T01:10:23.461Z,52.90
2022-12-25T01:12:55.115Z,55.50
2022-12-25T01:15:26.937Z,55.00
2022-12-25T01:18:00.669Z,50.40
2022-12-25T01:20:37.820Z,51.20
2022-12-25T01:25:40.346Z,48.20
2022-12-25T01:28:11.994Z,48.00
2022-12-25T01:30:50.491Z,41.40
2022-12-25T01:33:22.233Z,37.60
2022-12-25T01:35:53.866Z,36.90
2022-12-25T01:38:25.596Z,36.90
2022-12-25T01:40:57.469Z,32.20
2022-12-25T01:43:32.581Z,30.40
2022-12-25T01:46:05.250Z,29.90
2022-12-25T01:48:39.586Z,31.60
2022-12-25T01:51:21.567Z,33.80
2022-12-25T01:53:53.915Z,37.90
2022-12-25T01:56:27.251Z,33.20
2022-12-25T01:59:00.443Z,37.80
2022-12-25T02:01:32.346Z,36.20
2022-12-25T02:04:10.527Z,32.70
2022-12-25T02:06:42.585Z,33.70
2022-12-25T02:09:15.172Z,33.20
2022-12-25T02:11:58.053Z,34.70
2022-12-25T02:14:33.247Z,34.30
2022-12-25T02:17:12.503Z,32.60
2022-12-25T02:20:13.062Z,30.00
2022-12-25T02:22:57.333Z,31.30
2022-12-25T02:25:44.335Z,32.40
2022-12-25T02:28:22.572Z,31.70
2022-12-25T02:30:57.633Z,30.00
2022-12-25T02:33:55.174Z,28.30
2022-12-25T02:36:33.624Z,31.90
2022-12-25T02:39:32.300Z,28.60
2022-12-25T02:42:07.939Z,27.50
2022-12-25T02:45:03.180Z,28.50
2022-12-25T02:47:54.363Z,26.10
2022-12-25T02:50:49.759Z,25.70
2022-12-25T02:53:42.437Z,26.30
2022-12-25T02:56:35.574Z,25.90
2022-12-25T02:59:26.654Z,27.30
2022-12-25T03:02:16.658Z,27.20
2022-12-25T03:05:08.127Z,26.00
2022-12-25T03:07:43.003Z,27.70
2022-12-25T03:10:36.088Z,27.80
2022-12-25T03:13:16.863Z,29.70
2022-12-25T03:16:08.826Z,30.40
2022-12-25T03:18:40.814Z,32.50
2022-12-25T03:21:32.258Z,30.10
2022-12-25T03:24:22.540Z,28.70
2022-12-25T03:26:57.672Z,30.30
2022-12-25T03:29:52.739Z,30.60
2022-12-25T03:32:46.881Z,28.20
2022-12-25T03:35:27.483Z,27.30
2022-12-25T03:38:52.201Z,29.60
2022-12-25T03:41:50.763Z,26.50
2022-12-25T03:45:00.940Z,28.90
2022-12-25T03:47:56.933Z,29.50
2022-12-25T03:50:52.282Z,26.00
2022-12-25T03:53:46.230Z,29.30
2022-12-25T03:56:37.217Z,28.20
2022-12-25T03:59:26.477Z,27.80
2022-12-25T04:02:15.961Z,28.60
2022-12-25T04:05:07.075Z,27.80
2022-12-25T04:07:56.523Z,29.30
2022-12-25T04:10:46.341Z,29.20
2022-12-25T04:13:36.238Z,30.30
2022-12-25T04:16:28.314Z,32.80
2022-12-25T04:19:17.707Z,28.30
2022-12-25T04:22:06.921Z,30.00
2022-12-25T04:24:56.407Z,30.20
2022-12-25T04:27:45.870Z,30.60
2022-12-25T04:30:35.101Z,31.70
2022-12-25T04:33:24.797Z,28.60
2022-12-25T04:36:12.260Z,30.60
2022-12-25T04:38:49.051Z,31.60
2022-12-25T04:41:20.779Z,30.40
2022-12-25T04:43:54.988Z,29.90
2022-12-25T04:46:29.869Z,30.20
2022-12-25T04:49:01.541Z,30.10
2022-12-25T04:51:33.318Z,29.80
2022-12-25T04:54:07.678Z,29.10
2022-12-25T04:56:45.244Z,29.50
2022-12-25T04:59:18.463Z,31.50
2022-12-25T05:01:52.670Z,29.30
2022-12-25T05:04:24.433Z,28.00
2022-12-25T05:06:56.275Z,27.10
2022-12-25T05:09:28.728Z,27.50
2022-12-25T05:12:00.753Z,26.80
2022-12-25T05:14:32.499Z,25.60
2022-12-25T05:17:04.500Z,28.00
2022-12-25T05:19:36.273Z,28.90
2022-12-25T05:22:07.944Z,26.30
2022-12-25T05:24:39.546Z,26.40
2022-12-25T05:27:14.005Z,27.90
2022-12-25T05:29:47.499Z,27.80
2022-12-25T05:32:21.871Z,27.10
2022-12-25T05:34:53.535Z,24.50
2022-12-25T05:37:25.143Z,29.00
2022-12-25T05:39:59.431Z,28.30
2022-12-25T05:42:35.472Z,25.70
2022-12-25T05:45:10.491Z,26.60
2022-12-25T05:47:42.128Z,26.00
2022-12-25T05:50:17.016Z,24.40
2022-12-25T05:52:50.642Z,23.90
2022-12-25T05:57:52.694Z,23.10
2022-12-25T06:00:30.783Z,23.60
2022-12-25T06:03:02.639Z,26.20
2022-12-25T06:05:34.861Z,25.40
2022-12-25T06:08:06.626Z,25.20
2022-12-25T06:10:40.666Z,24.50
2022-12-25T06:13:15.084Z,26.70
2022-12-25T06:15:46.899Z,25.60
2022-12-25T06:18:18.695Z,26.60
2022-12-25T06:20:51.383Z,28.30
2022-12-25T06:23:23.117Z,25.60
2022-12-25T06:25:54.921Z,27.40
2022-12-25T06:28:34.478Z,25.80
2022-12-25T06:31:10.778Z,27.50
2022-12-25T06:33:43.080Z,29.40
2022-12-25T06:36:17.382Z,27.00
2022-12-25T06:38:49.733Z,23.90
2022-12-25T06:41:25.675Z,26.60
2022-12-25T06:44:01.592Z,25.50
2022-12-25T06:46:33.581Z,25.40
2022-12-25T06:49:05.357Z,23.60
2022-12-25T06:51:37.302Z,22.40
2022-12-25T06:54:10.541Z,22.00
2022-12-25T06:56:42.353Z,22.00
2022-12-25T06:59:17.126Z,25.40
2022-12-25T07:01:53.516Z,23.90
2022-12-25T07:04:31.935Z,25.30
2022-12-25T07:07:08.715Z,24.80
2022-12-25T07:09:44.301Z,24.50
2022-12-25T07:12:20.973Z,25.80
2022-12-25T07:14:54.580Z,28.00
2022-12-25T07:19:57.239Z,24.60
2022-12-25T07:22:31.191Z,23.10
2022-12-25T07:25:02.841Z,24.20
2022-12-25T07:27:34.555Z,22.00
2022-12-25T07:30:08.042Z,25.50
2022-12-25T07:32:39.633Z,25.80
2022-12-25T07:35:12.004Z,28.00
2022-12-25T07:37:43.928Z,26.40
2022-12-25T07:40:16.154Z,25.80
2022-12-25T07:42:47.803Z,25.90
2022-12-25T07:45:19.638Z,26.00
2022-12-25T07:47:53.855Z,28.40
2022-12-25T07:50:26.821Z,29.70
2022-12-25T07:52:59.487Z,26.50
2022-12-25T07:55:31.219Z,30.70
2022-12-25T07:58:02.856Z,28.40
2022-12-25T08:00:34.547Z,28.00
2022-12-25T08:03:06.673Z,29.50
2022-12-25T08:05:38.760Z,30.20
2022-12-25T08:08:10.611Z,30.50
2022-12-25T08:10:47.653Z,32.90
2022-12-25T08:13:19.264Z,30.30
2022-12-25T08:15:50.943Z,30.70
2022-12-25T08:18:29.509Z,30.80
2022-12-25T08:21:05.176Z,31.20
2022-12-25T08:23:38.685Z,35.20
2022-12-25T08:26:12.901Z,33.60
2022-12-25T08:28:44.637Z,37.80
2022-12-25T08:31:23.559Z,35.30
2022-12-25T08:33:57.032Z,44.10
2022-12-25T08:36:28.780Z,43.00
2022-12-25T08:39:03.253Z,46.60
2022-12-25T08:41:36.891Z,45.40
2022-12-25T08:44:08.887Z,44.80
2022-12-25T08:46:40.863Z,42.50
2022-12-25T08:49:12.686Z,45.60
2022-12-25T08:51:46.850Z,44.40
2022-12-25T08:54:18.682Z,42.40
2022-12-25T08:56:51.368Z,38.70
2022-12-25T08:59:23.353Z,41.10
2022-12-25T09:01:55.118Z,40.40
2022-12-25T09:04:27.052Z,42.80
2022-12-25T09:06:58.781Z,39.60
2022-12-25T09:09:31.533Z,38.10
2022-12-25T09:12:03.337Z,37.60
2022-12-25T09:14:35.091Z,37.80
2022-12-25T09:17:06.725Z,38.00
2022-12-25T09:19:38.409Z,38.90
2022-12-25T09:22:10.100Z,37.70
2022-12-25T09:24:43.758Z,37.20
2022-12-25T09:29:45.788Z,36.90
2022-12-25T09:32:17.399Z,37.90
2022-12-25T09:34:49.138Z,31.80
2022-12-25T09:37:20.856Z,30.90
2022-12-25T09:39:52.572Z,31.90
2022-12-25T09:42:26.435Z,31.90
2022-12-25T09:45:01.960Z,31.80
2022-12-25T09:47:37.044Z,33.00
2022-12-25T09:50:16.290Z,31.50
2022-12-25T09:52:54.082Z,29.80
2022-12-25T09:55:27.749Z,29.50
2022-12-25T10:00:38.208Z,30.10
2022-12-25T10:03:26.304Z,30.60
2022-12-25T10:06:12.070Z,30.30
2022-12-25T10:09:13.968Z,31.90
2022-12-25T10:12:07.635Z,29.90
2022-12-25T10:14:51.686Z,30.50
2022-12-25T10:20:12.347Z,23.80
2022-12-25T10:22:47.686Z,28.90
2022-12-25T10:25:22.394Z,25.70
2022-12-25T10:27:57.496Z,26.50
2022-12-25T10:30:30.789Z,24.10
2022-12-25T10:33:02.957Z,26.70
2022-12-25T10:35:34.757Z,25.40
2022-12-25T10:38:13.597Z,28.70
2022-12-25T10:40:59.369Z,30.30
2022-12-25T10:43:38.106Z,30.80
2022-12-25T10:46:15.521Z,29.60
2022-12-25T10:48:51.248Z,28.90
2022-12-25T10:51:34.568Z,31.90
2022-12-25T10:54:20.419Z,29.10
2022-12-25T10:57:00.794Z,29.80
2022-12-25T10:59:35.854Z,27.50
2022-12-25T11:02:21.113Z,27.70
2022-12-25T11:04:59.313Z,25.20
2022-12-25T11:07:31.627Z,23.50
2022-12-25T11:10:06.274Z,19.30
2022-12-25T11:12:43.192Z,18.00
2022-12-25T11:15:36.476Z,18.40
2022-12-25T11:18:20.993Z,14.70
2022-12-25T11:20:54.804Z,17.00
2022-12-25T11:26:03.591Z,17.30
2022-12-25T11:28:39.640Z,19.50
2022-12-25T11:31:15.073Z,18.90
2022-12-25T11:33:53.558Z,17.50
2022-12-25T11:36:33.000Z,16.40
2022-12-25T11:39:15.893Z,17.00
2022-12-25T11:41:49.391Z,17.10
2022-12-25T11:44:31.766Z,11.50
2022-12-25T11:47:13.015Z,13.50
2022-12-25T11:49:52.178Z,15.20
2022-12-25T11:52:30.402Z,11.50
2022-12-25T11:55:06.638Z,13.50
2022-12-25T11:57:41.190Z,10.70
2022-12-25T12:00:17.695Z,11.20
2022-12-25T12:02:56.089Z,13.70
2022-12-25T12:05:33.977Z,13.50
2022-12-25T12:08:07.460Z,12.80
2022-12-25T12:10:55.291Z,13.10
2022-12-25T12:13:41.525Z,16.80
2022-12-25T12:16:13.401Z,12.10
2022-12-25T12:18:50.272Z,15.10
2022-12-25T12:21:25.788Z,12.70
2022-12-25T12:24:02.390Z,15.20
2022-12-25T12:26:38.188Z,12.90
2022-12-25T12:29:25.429Z,12.40
2022-12-25T12:32:02.321Z,13.80
2022-12-25T12:34:42.679Z,14.20
2022-12-25T12:37:25.135Z,14.20
2022-12-25T12:39:58.156Z,16.10
2022-12-25T12:42:32.720Z,16.50
2022-12-25T12:45:17.140Z,13.50
2022-12-25T12:47:51.196Z,14.20
2022-12-25T12:50:40.867Z,16.60
2022-12-25T12:53:32.044Z,15.00
2022-12-25T12:56:16.385Z,14.60
2022-12-25T12:58:51.117Z,14.40
2022-12-25T13:01:38.482Z,14.10
2022-12-25T13:04:37.252Z,15.90
2022-12-25T13:07:18.908Z,16.40
2022-12-25T13:10:03.799Z,14.30
2022-12-25T13:12:35.783Z,14.60
2022-12-25T13:15:15.286Z,12.80
2022-12-25T13:17:50.029Z,13.00
2022-12-25T13:20:32.254Z,14.20
2022-12-25T13:23:13.562Z,13.00
2022-12-25T13:25:52.316Z,14.40
2022-12-25T13:28:29.759Z,13.20
2022-12-25T13:31:07.192Z,13.80
2022-12-25T13:33:40.175Z,14.40
2022-12-25T13:36:15.059Z,16.80
2022-12-25T13:38:49.344Z,14.70
2022-12-25T13:41:42.102Z,16.60
2022-12-25T13:44:21.174Z,16.60
2022-12-25T13:46:53.138Z,19.60
2022-12-25T13:49:25.834Z,18.80
2022-12-25T13:52:12.302Z,20.50
2022-12-25T13:54:58.052Z,20.20
2022-12-25T13:57:34.598Z,19.70
2022-12-25T14:00:09.275Z,19.00
2022-12-25T14:02:41.884Z,19.90
2022-12-25T14:05:28.335Z,19.00
2022-12-25T14:08:03.256Z,21.50
2022-12-25T14:10:39.127Z,23.30
2022-12-25T14:13:15.668Z,21.50
2022-12-25T14:15:49.067Z,25.00
2022-12-25T14:18:22.673Z,27.90
2022-12-25T14:21:03.655Z,29.10
2022-12-25T14:23:42.986Z,27.50
2022-12-25T14:26:20.007Z,25.10
2022-12-25T14:28:54.334Z,24.50
2022-12-25T14:31:29.481Z,26.10
2022-12-25T14:34:04.348Z,26.60
2022-12-25T14:36:36.664Z,24.10
2022-12-25T14:39:25.583Z,25.20
2022-12-25T14:41:57.646Z,22.30
2022-12-25T14:44:34.787Z,20.50
2022-12-25T14:47:22.772Z,22.10
2022-12-25T14:49:54.783Z,22.90
2022-12-25T14:52:29.175Z,22.60
2022-12-25T14:55:03.927Z,22.10
2022-12-25T14:57:39.031Z,21.70
2022-12-25T15:00:25.063Z,24.00
2022-12-25T15:02:59.738Z,23.60
2022-12-25T15:05:34.614Z,25.80
2022-12-25T15:08:23.061Z,26.20
2022-12-25T15:11:01.218Z,32.80
2022-12-25T15:13:36.176Z,31.30
2022-12-25T15:18:45.737Z,31.90
2022-12-25T15:21:26.124Z,32.60
2022-12-25T15:24:00.031Z,33.40
2022-12-25T15:26:33.685Z,33.40
2022-12-25T15:31:37.353Z,37.00
2022-12-25T15:36:40.661Z,34.20
2022-12-25T15:39:12.525Z,32.60
2022-12-25T15:42:01.743Z,32.70
2022-12-25T15:44:33.430Z,31.80
2022-12-25T15:47:05.401Z,36.60
2022-12-25T15:49:37.014Z,36.40
2022-12-25T15:52:12.721Z,39.90
2022-12-25T15:54:44.329Z,41.00
2022-12-25T15:57:20.542Z,38.10
2022-12-25T15:59:52.260Z,41.20
2022-12-25T16:02:24.113Z,41.90
2022-12-25T16:04:56.113Z,45.70
2022-12-25T16:07:29.303Z,45.10
2022-12-25T16:10:01.013Z,43.40
2022-12-25T16:12:32.748Z,44.80
2022-12-25T16:15:04.949Z,40.00
2022-12-25T16:17:36.592Z,45.40
2022-12-25T16:20:10.463Z,49.20
2022-12-25T16:22:42.075Z,44.10
2022-12-25T16:25:19.429Z,45.90
2022-12-25T16:27:51.009Z,49.80
2022-12-25T16:30:22.983Z,51.60
2022-12-25T16:32:54.750Z,55.70
2022-12-25T16:35:26.380Z,55.50
2022-12-25T16:37:58.228Z,55.20
2022-12-25T16:40:30.652Z,52.40
2022-12-25T16:43:02.649Z,51.40
2022-12-25T16:45:38.281Z,56.30
2022-12-25T16:48:10.445Z,51.50
2022-12-25T16:50:42.627Z,51.20
2022-12-25T16:53:14.315Z,51.00
2022-12-25T16:55:46.022Z,49.70
2022-12-25T16:58:17.601Z,57.50
2022-12-25T17:00:49.775Z,54.40
2022-12-25T17:03:21.565Z,53.00
2022-12-25T17:05:53.483Z,55.20
2022-12-25T17:08:25.053Z,49.10
2022-12-25T17:10:57.058Z,52.60
2022-12-25T17:13:28.676Z,53.90
2022-12-25T17:16:00.319Z,52.30
2022-12-25T17:18:32.077Z,51.60
2022-12-25T17:21:04.304Z,52.00
2022-12-25T17:23:37.115Z,54.10
2022-12-25T17:26:09.319Z,51.00
2022-12-25T17:28:40.922Z,66.90
2022-12-25T17:31:14.789Z,61.50
2022-12-25T17:33:46.887Z,68.00
2022-12-25T17:36:20.363Z,68.70
2022-12-25T17:38:52.061Z,65.30
2022-12-25T17:41:23.850Z,64.60
2022-12-25T17:43:55.458Z,65.20
2022-12-25T17:46:28.974Z,62.00
2022-12-25T17:51:32.694Z,59.40
2022-12-25T17:54:04.664Z,66.70
2022-12-25T17:56:36.730Z,63.40
2022-12-25T17:59:12.104Z,63.20
2022-12-25T18:01:43.801Z,66.40
2022-12-25T18:04:15.980Z,65.20
2022-12-25T18:06:47.853Z,65.10
2022-12-25T18:09:20.061Z,66.00
2022-12-25T18:11:52.037Z,62.60
2022-12-25T18:14:24.927Z,62.60
2022-12-25T18:16:57.422Z,64.30
2022-12-25T18:19:29.047Z,60.80
2022-12-25T18:22:00.838Z,69.00
2022-12-25T18:24:32.890Z,71.10
2022-12-25T18:27:04.647Z,73.00
2022-12-25T18:29:36.245Z,72.00
2022-12-25T18:32:08.329Z,74.00
2022-12-25T18:34:40.026Z,76.60
2022-12-25T18:37:11.805Z,76.10
2022-12-25T18:39:43.465Z,76.50
2022-12-25T18:42:33.172Z,73.00
2022-12-25T18:45:05.459Z,75.00
2022-12-25T18:47:37.539Z,71.70
2022-12-25T18:50:11.542Z,68.00
2022-12-25T18:52:47.808Z,69.30
2022-12-25T18:55:25.863Z,61.10
2022-12-25T18:57:57.970Z,61.40
2022-12-25T19:00:29.728Z,75.80
2022-12-25T19:03:02.177Z,62.40
2022-12-25T19:05:34.050Z,63.70
2022-12-25T19:08:06.227Z,63.90
2022-12-25T19:10:39.354Z,63.30
2022-12-25T19:13:12.220Z,62.00
2022-12-25T19:15:45.193Z,61.80
2022-12-25T19:18:16.980Z,59.80
2022-12-25T19:20:48.934Z,58.20
2022-12-25T19:23:21.238Z,55.70
2022-12-25T19:25:53.597Z,59.30
2022-12-25T19:28:27.437Z,64.40
2022-12-25T19:31:02.731Z,84.10
2022-12-25T19:33:35.352Z,87.10
2022-12-25T19:36:10.988Z,85.80
2022-12-25T19:38:43.972Z,80.70
2022-12-25T19:41:17.846Z,97.90
2022-12-25T19:43:52.122Z,86.50
2022-12-25T19:46:26.813Z,74.40
2022-12-25T19:49:04.275Z,67.20
2022-12-25T19:51:39.215Z,75.00
2022-12-25T19:54:15.667Z,56.00
2022-12-25T19:56:48.099Z,54.20
2022-12-25T19:59:19.962Z,53.00
2022-12-25T20:01:52.014Z,53.90
2022-12-25T20:04:24.039Z,54.50
2022-12-25T20:06:55.689Z,59.60
2022-12-25T20:09:27.307Z,65.10
2022-12-25T20:11:58.961Z,60.10
2022-12-25T20:14:30.622Z,60.60
2022-12-25T20:17:02.375Z,62.30
2022-12-25T20:19:34.545Z,62.10
2022-12-25T20:22:06.131Z,57.50
2022-12-25T20:24:37.787Z,53.90
2022-12-25T20:27:09.547Z,53.20
2022-12-25T20:29:41.190Z,57.30
2022-12-25T20:32:13.033Z,59.80
2022-12-25T20:34:44.891Z,68.50
2022-12-25T20:37:16.544Z,65.00
2022-12-25T20:39:48.381Z,72.30
2022-12-25T20:42:20.373Z,73.30
2022-12-25T20:44:52.583Z,66.00
2022-12-25T20:47:24.497Z,70.10
2022-12-25T20:49:56.364Z,67.00
2022-12-25T20:52:28.034Z,63.10
2022-12-25T20:54:59.637Z,66.80
2022-12-25T20:57:31.560Z,63.00
2022-12-25T21:00:05.062Z,60.00
2022-12-25T21:02:37.954Z,62.00
2022-12-25T21:05:12.444Z,61.60
2022-12-25T21:07:44.081Z,56.10
2022-12-25T21:10:15.858Z,53.60
2022-12-25T21:12:47.488Z,56.20
2022-12-25T21:15:19.447Z,54.00
2022-12-25T21:17:51.038Z,54.40
2022-12-25T21:20:22.620Z,54.00
2022-12-25T21:22:54.242Z,52.20
2022-12-25T21:25:25.881Z,52.20
2022-12-25T21:27:57.618Z,51.70
2022-12-25T21:30:29.280Z,56.20
2022-12-25T21:33:18.706Z,54.40
2022-12-25T21:35:50.832Z,58.30
2022-12-25T21:38:22.479Z,59.70
2022-12-25T21:40:54.102Z,57.70
2022-12-25T21:43:25.716Z,60.30
2022-12-25T21:45:57.374Z,63.20
2022-12-25T21:48:28.977Z,59.70
2022-12-25T21:51:23.425Z,61.40
2022-12-25T21:53:55.129Z,51.60
2022-12-25T21:56:28.157Z,54.00
2022-12-25T21:59:01.519Z,53.80
2022-12-25T22:01:35.405Z,52.30
2022-12-25T22:04:09.027Z,53.10
2022-12-25T22:06:58.866Z,55.90
2022-12-25T22:09:30.807Z,56.40
2022-12-25T22:12:20.646Z,59.60
2022-12-25T22:14:56.356Z,54.50
2022-12-25T22:17:47.640Z,58.60
2022-12-25T22:20:21.652Z,58.30
2022-12-25T22:22:53.807Z,56.10
2022-12-25T22:25:25.999Z,55.70
2022-12-25T22:27:58.489Z,57.60
2022-12-25T22:30:31.956Z,60.30
2022-12-25T22:33:03.779Z,55.90
2022-12-25T22:35:35.424Z,54.80
2022-12-25T22:38:07.181Z,52.60
2022-12-25T22:40:39.032Z,59.00
2022-12-25T22:43:10.891Z,54.40
2022-12-25T22:45:42.557Z,52.60
2022-12-25T22:48:14.191Z,56.50
2022-12-25T22:50:45.819Z,54.20
2022-12-25T22:53:17.506Z,52.10
2022-12-25T22:55:49.791Z,47.80
2022-12-25T22:58:21.521Z,51.40
2022-12-25T23:00:53.247Z,51.10
2022-12-25T23:03:25.042Z,47.90
2022-12-25T23:05:57.818Z,52.50
2022-12-25T23:08:29.592Z,47.80
2022-12-25T23:11:05.675Z,48.80
2022-12-25T23:13:55.913Z,53.60
2022-12-25T23:16:27.656Z,50.70
2022-12-25T23:19:17.162Z,52.80
2022-12-25T23:22:18.021Z,47.30
2022-12-25T23:25:07.792Z,48.70
2022-12-25T23:27:39.443Z,49.20
2022-12-25T23:30:13.592Z,48.80
2022-12-25T23:32:46.025Z,49.90
2022-12-25T23:35:17.616Z,50.80
2022-12-25T23:37:52.998Z,45.80
2022-12-25T23:40:24.731Z,48.60
2022-12-25T23:42:56.351Z,47.80
2022-12-25T23:45:27.979Z,47.20
2022-12-25T23:47:59.678Z,44.10
2022-12-25T23:50:31.296Z,49.80
2022-12-25T23:53:02.901Z,48.80
2022-12-25T23:55:36.399Z,50.60
2022-12-25T23:58:08.174Z,47.20
